sensor_id;sensor_type;location;lat;lon;timestamp;P1;durP1;ratioP1;P2;durP2;ratioP2
77581;SDS011;66726;52.388;9.986;2023-04-01T00:00:29;3.47;;;2.10;;
77581;SDS011;66726;52.388;9.986;2023-04-01T00:03:01;5.50;;;2.00;;
77581;SDS011;66726;52.388;9.986;2023-04-01T00:05:33;5.90;;;2.23;;
77581;SDS011;66726;52.388;9.986;2023-04-01T00:08:06;4.00;;;2.30;;
77581;SDS011;66726;52.388;9.986;2023-04-01T00:10:38;5.43;;;2.17;;
77581;SDS011;66726;52.388;9.986;2023-04-01T00:13:10;5.17;;;2.30;;
77581;SDS011;66726;52.388;9.986;2023-04-01T00:15:43;7.33;;;2.43;;
77581;SDS011;66726;52.388;9.986;2023-04-01T00:18:17;4.57;;;2.47;;
77581;SDS011;66726;52.388;9.986;2023-04-01T00:20:50;4.90;;;2.17;;
77581;SDS011;66726;52.388;9.986;2023-04-01T00:23:24;8.17;;;2.27;;
77581;SDS011;66726;52.388;9.986;2023-04-01T00:25:56;7.37;;;2.00;;
77581;SDS011;66726;52.388;9.986;2023-04-01T00:28:31;7.20;;;2.07;;
77581;SDS011;66726;52.388;9.986;2023-04-01T00:31:05;4.87;;;2.10;;
77581;SDS011;66726;52.388;9.986;2023-04-01T00:33:38;4.17;;;2.03;;
77581;SDS011;66726;52.388;9.986;2023-04-01T00:36:10;10.47;;;2.60;;
77581;SDS011;66726;52.388;9.986;2023-04-01T00:38:46;5.67;;;2.30;;
77581;SDS011;66726;52.388;9.986;2023-04-01T00:41:19;6.93;;;2.07;;
77581;SDS011;66726;52.388;9.986;2023-04-01T00:43:52;3.23;;;1.73;;
77581;SDS011;66726;52.388;9.986;2023-04-01T00:46:45;4.17;;;2.17;;
77581;SDS011;66726;52.388;9.986;2023-04-01T00:49:19;7.27;;;2.43;;
77581;SDS011;66726;52.388;9.986;2023-04-01T00:51:54;5.83;;;2.00;;
77581;SDS011;66726;52.388;9.986;2023-04-01T00:54:32;3.23;;;1.73;;
77581;SDS011;66726;52.388;9.986;2023-04-01T00:57:09;6.27;;;2.17;;
77581;SDS011;66726;52.388;9.986;2023-04-01T00:59:47;6.47;;;1.90;;
77581;SDS011;66726;52.388;9.986;2023-04-01T01:02:22;4.33;;;1.97;;
77581;SDS011;66726;52.388;9.986;2023-04-01T01:04:55;6.13;;;1.87;;
77581;SDS011;66726;52.388;9.986;2023-04-01T01:07:27;5.80;;;2.20;;
77581;SDS011;66726;52.388;9.986;2023-04-01T01:10:14;3.53;;;1.40;;
77581;SDS011;66726;52.388;9.986;2023-04-01T01:12:52;3.70;;;1.87;;
77581;SDS011;66726;52.388;9.986;2023-04-01T01:15:36;4.80;;;1.80;;
77581;SDS011;66726;52.388;9.986;2023-04-01T01:18:16;4.77;;;1.77;;
77581;SDS011;66726;52.388;9.986;2023-04-01T01:21:17;3.20;;;1.57;;
77581;SDS011;66726;52.388;9.986;2023-04-01T01:24:17;3.93;;;1.87;;
77581;SDS011;66726;52.388;9.986;2023-04-01T01:27:08;4.40;;;1.80;;
77581;SDS011;66726;52.388;9.986;2023-04-01T01:33:09;5.40;;;1.90;;
77581;SDS011;66726;52.388;9.986;2023-04-01T01:36:01;2.60;;;1.50;;
77581;SDS011;66726;52.388;9.986;2023-04-01T01:38:41;4.27;;;1.87;;
77581;SDS011;66726;52.388;9.986;2023-04-01T01:41:14;4.10;;;1.50;;
77581;SDS011;66726;52.388;9.986;2023-04-01T01:43:50;3.97;;;1.70;;
77581;SDS011;66726;52.388;9.986;2023-04-01T01:46:27;6.37;;;1.57;;
77581;SDS011;66726;52.388;9.986;2023-04-01T01:49:00;4.23;;;1.40;;
77581;SDS011;66726;52.388;9.986;2023-04-01T01:51:36;4.10;;;1.30;;
77581;SDS011;66726;52.388;9.986;2023-04-01T01:54:11;5.30;;;1.70;;
77581;SDS011;66726;52.388;9.986;2023-04-01T01:56:45;3.97;;;1.23;;
77581;SDS011;66726;52.388;9.986;2023-04-01T01:59:28;2.37;;;1.33;;
77581;SDS011;66726;52.388;9.986;2023-04-01T02:02:03;3.43;;;1.30;;
77581;SDS011;66726;52.388;9.986;2023-04-01T02:04:39;3.13;;;1.10;;
77581;SDS011;66726;52.388;9.986;2023-04-01T02:07:16;3.37;;;1.40;;
77581;SDS011;66726;52.388;9.986;2023-04-01T02:09:55;2.50;;;1.37;;
77581;SDS011;66726;52.388;9.986;2023-04-01T02:12:27;4.70;;;1.27;;
77581;SDS011;66726;52.388;9.986;2023-04-01T02:15:03;4.87;;;1.37;;
77581;SDS011;66726;52.388;9.986;2023-04-01T02:17:42;4.97;;;1.10;;
77581;SDS011;66726;52.388;9.986;2023-04-01T02:20:18;4.83;;;1.60;;
77581;SDS011;66726;52.388;9.986;2023-04-01T02:22:56;2.37;;;1.17;;
77581;SDS011;66726;52.388;9.986;2023-04-01T02:25:34;4.90;;;1.43;;
77581;SDS011;66726;52.388;9.986;2023-04-01T02:28:14;2.73;;;1.10;;
77581;SDS011;66726;52.388;9.986;2023-04-01T02:30:49;2.23;;;1.30;;
77581;SDS011;66726;52.388;9.986;2023-04-01T02:33:21;4.40;;;1.40;;
77581;SDS011;66726;52.388;9.986;2023-04-01T02:35:54;3.43;;;1.40;;
77581;SDS011;66726;52.388;9.986;2023-04-01T02:38:28;2.13;;;1.10;;
77581;SDS011;66726;52.388;9.986;2023-04-01T02:41:03;1.97;;;1.10;;
77581;SDS011;66726;52.388;9.986;2023-04-01T02:43:35;2.80;;;1.20;;
77581;SDS011;66726;52.388;9.986;2023-04-01T02:46:07;2.63;;;1.30;;
77581;SDS011;66726;52.388;9.986;2023-04-01T02:48:38;2.87;;;1.37;;
77581;SDS011;66726;52.388;9.986;2023-04-01T02:51:10;3.00;;;1.30;;
77581;SDS011;66726;52.388;9.986;2023-04-01T02:53:45;5.63;;;1.70;;
77581;SDS011;66726;52.388;9.986;2023-04-01T02:56:16;4.13;;;1.40;;
77581;SDS011;66726;52.388;9.986;2023-04-01T02:58:48;1.87;;;1.20;;
77581;SDS011;66726;52.388;9.986;2023-04-01T03:01:21;3.93;;;1.33;;
77581;SDS011;66726;52.388;9.986;2023-04-01T03:03:53;1.50;;;1.20;;
77581;SDS011;66726;52.388;9.986;2023-04-01T03:06:25;3.23;;;1.20;;
77581;SDS011;66726;52.388;9.986;2023-04-01T03:08:58;3.33;;;1.33;;
77581;SDS011;66726;52.388;9.986;2023-04-01T03:11:30;2.07;;;1.20;;
77581;SDS011;66726;52.388;9.986;2023-04-01T03:14:02;4.17;;;1.20;;
77581;SDS011;66726;52.388;9.986;2023-04-01T03:16:34;4.37;;;1.40;;
77581;SDS011;66726;52.388;9.986;2023-04-01T03:19:06;2.67;;;1.33;;
77581;SDS011;66726;52.388;9.986;2023-04-01T03:21:37;3.80;;;1.40;;
77581;SDS011;66726;52.388;9.986;2023-04-01T03:24:10;2.97;;;1.23;;
77581;SDS011;66726;52.388;9.986;2023-04-01T03:26:42;3.70;;;1.43;;
77581;SDS011;66726;52.388;9.986;2023-04-01T03:29:14;4.27;;;1.37;;
77581;SDS011;66726;52.388;9.986;2023-04-01T03:31:46;4.33;;;1.50;;
77581;SDS011;66726;52.388;9.986;2023-04-01T03:34:18;3.60;;;1.23;;
77581;SDS011;66726;52.388;9.986;2023-04-01T03:36:50;2.27;;;1.50;;
77581;SDS011;66726;52.388;9.986;2023-04-01T03:39:23;2.10;;;1.20;;
77581;SDS011;66726;52.388;9.986;2023-04-01T03:41:55;3.40;;;1.50;;
77581;SDS011;66726;52.388;9.986;2023-04-01T03:44:29;4.30;;;1.47;;
77581;SDS011;66726;52.388;9.986;2023-04-01T03:47:01;2.73;;;1.37;;
77581;SDS011;66726;52.388;9.986;2023-04-01T03:49:35;4.37;;;1.60;;
77581;SDS011;66726;52.388;9.986;2023-04-01T03:52:08;3.97;;;1.40;;
77581;SDS011;66726;52.388;9.986;2023-04-01T03:54:41;2.97;;;1.53;;
77581;SDS011;66726;52.388;9.986;2023-04-01T03:57:13;3.43;;;1.97;;
77581;SDS011;66726;52.388;9.986;2023-04-01T03:59:45;3.83;;;1.70;;
77581;SDS011;66726;52.388;9.986;2023-04-01T04:02:17;2.47;;;1.60;;
77581;SDS011;66726;52.388;9.986;2023-04-01T04:04:49;4.60;;;1.90;;
77581;SDS011;66726;52.388;9.986;2023-04-01T04:07:21;3.80;;;1.57;;
77581;SDS011;66726;52.388;9.986;2023-04-01T04:09:54;2.80;;;1.70;;
77581;SDS011;66726;52.388;9.986;2023-04-01T04:12:26;3.40;;;1.77;;
77581;SDS011;66726;52.388;9.986;2023-04-01T04:14:58;6.03;;;2.50;;
77581;SDS011;66726;52.388;9.986;2023-04-01T04:17:30;2.57;;;2.10;;
77581;SDS011;66726;52.388;9.986;2023-04-01T04:20:02;3.33;;;1.97;;
77581;SDS011;66726;52.388;9.986;2023-04-01T04:22:36;4.00;;;2.40;;
77581;SDS011;66726;52.388;9.986;2023-04-01T04:25:09;5.07;;;2.97;;
77581;SDS011;66726;52.388;9.986;2023-04-01T04:27:41;5.93;;;3.20;;
77581;SDS011;66726;52.388;9.986;2023-04-01T04:30:13;8.17;;;3.60;;
77581;SDS011;66726;52.388;9.986;2023-04-01T04:32:45;7.03;;;4.03;;
77581;SDS011;66726;52.388;9.986;2023-04-01T04:35:16;8.87;;;5.00;;
77581;SDS011;66726;52.388;9.986;2023-04-01T04:37:48;11.63;;;7.00;;
77581;SDS011;66726;52.388;9.986;2023-04-01T04:40:22;12.63;;;6.97;;
77581;SDS011;66726;52.388;9.986;2023-04-01T04:42:54;8.73;;;6.23;;
77581;SDS011;66726;52.388;9.986;2023-04-01T04:45:26;10.23;;;5.03;;
77581;SDS011;66726;52.388;9.986;2023-04-01T04:47:58;8.20;;;4.27;;
77581;SDS011;66726;52.388;9.986;2023-04-01T04:50:31;5.07;;;2.90;;
77581;SDS011;66726;52.388;9.986;2023-04-01T04:53:03;5.30;;;2.27;;
77581;SDS011;66726;52.388;9.986;2023-04-01T04:55:37;5.80;;;2.50;;
77581;SDS011;66726;52.388;9.986;2023-04-01T04:58:13;4.17;;;2.27;;
77581;SDS011;66726;52.388;9.986;2023-04-01T05:00:46;6.10;;;2.20;;
77581;SDS011;66726;52.388;9.986;2023-04-01T05:03:18;4.30;;;2.00;;
77581;SDS011;66726;52.388;9.986;2023-04-01T05:05:50;6.63;;;1.97;;
77581;SDS011;66726;52.388;9.986;2023-04-01T05:08:23;3.73;;;2.13;;
77581;SDS011;66726;52.388;9.986;2023-04-01T05:10:56;3.97;;;2.23;;
77581;SDS011;66726;52.388;9.986;2023-04-01T05:13:29;3.33;;;2.57;;
77581;SDS011;66726;52.388;9.986;2023-04-01T05:16:01;4.50;;;1.90;;
77581;SDS011;66726;52.388;9.986;2023-04-01T05:18:37;3.87;;;2.00;;
77581;SDS011;66726;52.388;9.986;2023-04-01T05:21:10;5.00;;;2.27;;
77581;SDS011;66726;52.388;9.986;2023-04-01T05:23:43;5.73;;;2.40;;
77581;SDS011;66726;52.388;9.986;2023-04-01T05:26:16;4.67;;;2.40;;
77581;SDS011;66726;52.388;9.986;2023-04-01T05:28:48;5.33;;;2.50;;
77581;SDS011;66726;52.388;9.986;2023-04-01T05:31:20;6.07;;;2.47;;
77581;SDS011;66726;52.388;9.986;2023-04-01T05:33:53;4.53;;;2.60;;
77581;SDS011;66726;52.388;9.986;2023-04-01T05:36:25;6.73;;;2.70;;
77581;SDS011;66726;52.388;9.986;2023-04-01T05:38:57;5.63;;;2.50;;
77581;SDS011;66726;52.388;9.986;2023-04-01T05:41:31;4.47;;;2.40;;
77581;SDS011;66726;52.388;9.986;2023-04-01T05:44:05;4.20;;;2.40;;
77581;SDS011;66726;52.388;9.986;2023-04-01T05:46:40;3.07;;;2.47;;
77581;SDS011;66726;52.388;9.986;2023-04-01T05:49:12;4.00;;;2.40;;
77581;SDS011;66726;52.388;9.986;2023-04-01T05:51:44;4.53;;;2.30;;
77581;SDS011;66726;52.388;9.986;2023-04-01T05:54:17;5.10;;;2.27;;
77581;SDS011;66726;52.388;9.986;2023-04-01T05:56:51;3.70;;;2.30;;
77581;SDS011;66726;52.388;9.986;2023-04-01T05:59:23;3.43;;;2.00;;
77581;SDS011;66726;52.388;9.986;2023-04-01T06:01:57;4.77;;;2.20;;
77581;SDS011;66726;52.388;9.986;2023-04-01T06:04:31;4.87;;;2.40;;
77581;SDS011;66726;52.388;9.986;2023-04-01T06:07:11;4.40;;;2.20;;
77581;SDS011;66726;52.388;9.986;2023-04-01T06:09:45;5.17;;;2.20;;
77581;SDS011;66726;52.388;9.986;2023-04-01T06:12:23;5.47;;;2.37;;
77581;SDS011;66726;52.388;9.986;2023-04-01T06:18:12;4.77;;;2.20;;
77581;SDS011;66726;52.388;9.986;2023-04-01T06:21:19;4.53;;;2.23;;
77581;SDS011;66726;52.388;9.986;2023-04-01T06:24:21;3.40;;;2.00;;
77581;SDS011;66726;52.388;9.986;2023-04-01T06:27:23;2.53;;;2.03;;
77581;SDS011;66726;52.388;9.986;2023-04-01T06:30:16;4.63;;;2.30;;
77581;SDS011;66726;52.388;9.986;2023-04-01T06:33:28;4.13;;;2.10;;
77581;SDS011;66726;52.388;9.986;2023-04-01T06:36:21;4.53;;;2.53;;
77581;SDS011;66726;52.388;9.986;2023-04-01T06:39:11;4.73;;;2.57;;
77581;SDS011;66726;52.388;9.986;2023-04-01T06:42:13;5.40;;;2.60;;
77581;SDS011;66726;52.388;9.986;2023-04-01T06:45:04;5.07;;;2.47;;
77581;SDS011;66726;52.388;9.986;2023-04-01T06:47:55;4.17;;;2.17;;
77581;SDS011;66726;52.388;9.986;2023-04-01T06:50:43;6.60;;;2.47;;
77581;SDS011;66726;52.388;9.986;2023-04-01T06:53:23;4.63;;;2.47;;
77581;SDS011;66726;52.388;9.986;2023-04-01T06:56:09;5.67;;;3.10;;
77581;SDS011;66726;52.388;9.986;2023-04-01T06:58:46;6.23;;;2.23;;
77581;SDS011;66726;52.388;9.986;2023-04-01T07:01:23;5.23;;;2.23;;
77581;SDS011;66726;52.388;9.986;2023-04-01T07:04:05;4.37;;;2.70;;
77581;SDS011;66726;52.388;9.986;2023-04-01T07:06:43;3.93;;;2.50;;
77581;SDS011;66726;52.388;9.986;2023-04-01T07:09:22;5.50;;;2.50;;
77581;SDS011;66726;52.388;9.986;2023-04-01T07:12:05;4.20;;;2.30;;
77581;SDS011;66726;52.388;9.986;2023-04-01T07:14:47;3.93;;;2.20;;
77581;SDS011;66726;52.388;9.986;2023-04-01T07:17:23;5.30;;;2.27;;
77581;SDS011;66726;52.388;9.986;2023-04-01T07:20:01;3.17;;;1.80;;
77581;SDS011;66726;52.388;9.986;2023-04-01T07:22:43;6.83;;;2.10;;
77581;SDS011;66726;52.388;9.986;2023-04-01T07:25:20;4.50;;;1.90;;
77581;SDS011;66726;52.388;9.986;2023-04-01T07:27:56;3.70;;;1.80;;
77581;SDS011;66726;52.388;9.986;2023-04-01T07:30:39;4.33;;;1.63;;
77581;SDS011;66726;52.388;9.986;2023-04-01T07:33:21;4.17;;;2.10;;
77581;SDS011;66726;52.388;9.986;2023-04-01T07:36:02;6.03;;;2.13;;
77581;SDS011;66726;52.388;9.986;2023-04-01T07:38:44;3.53;;;1.77;;
77581;SDS011;66726;52.388;9.986;2023-04-01T07:41:31;5.43;;;2.23;;
77581;SDS011;66726;52.388;9.986;2023-04-01T07:44:13;3.57;;;1.67;;
77581;SDS011;66726;52.388;9.986;2023-04-01T07:46:55;6.20;;;2.03;;
77581;SDS011;66726;52.388;9.986;2023-04-01T07:49:42;5.20;;;2.00;;
77581;SDS011;66726;52.388;9.986;2023-04-01T07:52:24;4.73;;;1.50;;
77581;SDS011;66726;52.388;9.986;2023-04-01T07:55:05;2.80;;;1.77;;
77581;SDS011;66726;52.388;9.986;2023-04-01T07:57:49;5.70;;;1.80;;
77581;SDS011;66726;52.388;9.986;2023-04-01T08:00:28;3.63;;;1.93;;
77581;SDS011;66726;52.388;9.986;2023-04-01T08:03:19;4.47;;;1.83;;
77581;SDS011;66726;52.388;9.986;2023-04-01T08:06:05;3.27;;;2.03;;
77581;SDS011;66726;52.388;9.986;2023-04-01T08:08:49;2.73;;;1.60;;
77581;SDS011;66726;52.388;9.986;2023-04-01T08:11:32;3.60;;;1.70;;
77581;SDS011;66726;52.388;9.986;2023-04-01T08:14:17;3.53;;;1.70;;
77581;SDS011;66726;52.388;9.986;2023-04-01T08:16:59;2.50;;;1.40;;
77581;SDS011;66726;52.388;9.986;2023-04-01T08:19:45;4.40;;;1.70;;
77581;SDS011;66726;52.388;9.986;2023-04-01T08:22:33;4.17;;;1.73;;
77581;SDS011;66726;52.388;9.986;2023-04-01T08:25:13;2.77;;;1.40;;
77581;SDS011;66726;52.388;9.986;2023-04-01T08:27:53;3.33;;;1.50;;
77581;SDS011;66726;52.388;9.986;2023-04-01T08:30:35;2.57;;;1.40;;
77581;SDS011;66726;52.388;9.986;2023-04-01T08:33:13;2.40;;;1.47;;
77581;SDS011;66726;52.388;9.986;2023-04-01T08:35:54;3.07;;;1.30;;
77581;SDS011;66726;52.388;9.986;2023-04-01T08:38:30;2.87;;;1.40;;
77581;SDS011;66726;52.388;9.986;2023-04-01T08:41:11;3.10;;;1.43;;
77581;SDS011;66726;52.388;9.986;2023-04-01T08:44:28;4.40;;;1.53;;
77581;SDS011;66726;52.388;9.986;2023-04-01T08:47:46;2.47;;;1.40;;
77581;SDS011;66726;52.388;9.986;2023-04-01T08:50:36;4.23;;;1.43;;
77581;SDS011;66726;52.388;9.986;2023-04-01T08:53:47;2.63;;;1.10;;
77581;SDS011;66726;52.388;9.986;2023-04-01T08:56:40;2.93;;;1.33;;
77581;SDS011;66726;52.388;9.986;2023-04-01T08:59:27;2.83;;;1.20;;
77581;SDS011;66726;52.388;9.986;2023-04-01T09:05:46;4.00;;;1.90;;
77581;SDS011;66726;52.388;9.986;2023-04-01T09:08:43;4.73;;;1.57;;
77581;SDS011;66726;52.388;9.986;2023-04-01T09:11:52;1.80;;;1.30;;
77581;SDS011;66726;52.388;9.986;2023-04-01T09:15:01;2.53;;;1.27;;
77581;SDS011;66726;52.388;9.986;2023-04-01T09:18:09;2.97;;;1.23;;
77581;SDS011;66726;52.388;9.986;2023-04-01T09:21:17;3.53;;;1.20;;
77581;SDS011;66726;52.388;9.986;2023-04-01T09:27:04;2.83;;;1.30;;
77581;SDS011;66726;52.388;9.986;2023-04-01T09:30:05;3.17;;;1.50;;
77581;SDS011;66726;52.388;9.986;2023-04-01T09:33:08;2.33;;;1.47;;
77581;SDS011;66726;52.388;9.986;2023-04-01T09:36:38;1.90;;;1.13;;
77581;SDS011;66726;52.388;9.986;2023-04-01T09:39:35;2.37;;;1.50;;
77581;SDS011;66726;52.388;9.986;2023-04-01T09:42:25;3.07;;;1.43;;
77581;SDS011;66726;52.388;9.986;2023-04-01T09:45:20;1.53;;;1.30;;
77581;SDS011;66726;52.388;9.986;2023-04-01T09:48:08;3.17;;;1.33;;
77581;SDS011;66726;52.388;9.986;2023-04-01T09:51:03;2.90;;;1.40;;
77581;SDS011;66726;52.388;9.986;2023-04-01T09:53:54;1.83;;;1.50;;
77581;SDS011;66726;52.388;9.986;2023-04-01T09:56:56;1.80;;;1.33;;
77581;SDS011;66726;52.388;9.986;2023-04-01T10:03:41;3.40;;;1.27;;
77581;SDS011;66726;52.388;9.986;2023-04-01T10:06:57;2.10;;;1.00;;
77581;SDS011;66726;52.388;9.986;2023-04-01T10:16:49;2.67;;;1.30;;
77581;SDS011;66726;52.388;9.986;2023-04-01T10:20:02;2.03;;;0.93;;
77581;SDS011;66726;52.388;9.986;2023-04-01T10:22:56;2.50;;;1.00;;
77581;SDS011;66726;52.388;9.986;2023-04-01T10:36:34;2.57;;;1.17;;
77581;SDS011;66726;52.388;9.986;2023-04-01T10:43:07;2.63;;;1.53;;
77581;SDS011;66726;52.388;9.986;2023-04-01T10:49:37;2.47;;;1.40;;
77581;SDS011;66726;52.388;9.986;2023-04-01T10:52:30;1.77;;;1.30;;
77581;SDS011;66726;52.388;9.986;2023-04-01T10:55:55;1.97;;;1.10;;
77581;SDS011;66726;52.388;9.986;2023-04-01T11:09:09;2.10;;;1.10;;
77581;SDS011;66726;52.388;9.986;2023-04-01T11:15:31;2.43;;;1.10;;
77581;SDS011;66726;52.388;9.986;2023-04-01T11:22:08;2.27;;;0.93;;
77581;SDS011;66726;52.388;9.986;2023-04-01T11:25:17;3.77;;;1.30;;
77581;SDS011;66726;52.388;9.986;2023-04-01T11:28:21;1.67;;;1.00;;
77581;SDS011;66726;52.388;9.986;2023-04-01T11:31:29;1.63;;;1.00;;
77581;SDS011;66726;52.388;9.986;2023-04-01T11:34:21;1.70;;;0.90;;
77581;SDS011;66726;52.388;9.986;2023-04-01T11:37:18;1.17;;;1.07;;
77581;SDS011;66726;52.388;9.986;2023-04-01T11:40:05;3.17;;;1.40;;
77581;SDS011;66726;52.388;9.986;2023-04-01T11:42:51;4.43;;;1.23;;
77581;SDS011;66726;52.388;9.986;2023-04-01T11:45:49;1.87;;;1.40;;
77581;SDS011;66726;52.388;9.986;2023-04-01T11:48:49;1.93;;;1.20;;
77581;SDS011;66726;52.388;9.986;2023-04-01T11:54:41;1.57;;;1.20;;
77581;SDS011;66726;52.388;9.986;2023-04-01T11:57:43;1.10;;;1.00;;
77581;SDS011;66726;52.388;9.986;2023-04-01T12:00:33;2.10;;;0.93;;
77581;SDS011;66726;52.388;9.986;2023-04-01T12:03:46;1.10;;;1.00;;
77581;SDS011;66726;52.388;9.986;2023-04-01T12:06:48;2.27;;;1.00;;
77581;SDS011;66726;52.388;9.986;2023-04-01T12:09:33;1.60;;;1.20;;
77581;SDS011;66726;52.388;9.986;2023-04-01T12:12:18;1.20;;;1.10;;
77581;SDS011;66726;52.388;9.986;2023-04-01T12:15:13;1.20;;;1.10;;
77581;SDS011;66726;52.388;9.986;2023-04-01T12:17:56;1.43;;;1.10;;
77581;SDS011;66726;52.388;9.986;2023-04-01T12:20:43;2.23;;;1.20;;
77581;SDS011;66726;52.388;9.986;2023-04-01T12:23:32;1.57;;;1.10;;
77581;SDS011;66726;52.388;9.986;2023-04-01T12:26:40;1.70;;;1.20;;
77581;SDS011;66726;52.388;9.986;2023-04-01T12:29:44;1.77;;;1.03;;
77581;SDS011;66726;52.388;9.986;2023-04-01T12:32:50;2.00;;;1.10;;
77581;SDS011;66726;52.388;9.986;2023-04-01T12:36:07;1.13;;;1.03;;
77581;SDS011;66726;52.388;9.986;2023-04-01T12:38:58;0.80;;;0.80;;
77581;SDS011;66726;52.388;9.986;2023-04-01T12:41:49;1.30;;;1.20;;
77581;SDS011;66726;52.388;9.986;2023-04-01T12:44:34;1.50;;;1.30;;
77581;SDS011;66726;52.388;9.986;2023-04-01T12:47:22;1.80;;;1.10;;
77581;SDS011;66726;52.388;9.986;2023-04-01T12:50:21;0.80;;;0.80;;
77581;SDS011;66726;52.388;9.986;2023-04-01T12:56:07;1.37;;;1.00;;
77581;SDS011;66726;52.388;9.986;2023-04-01T13:02:11;2.10;;;1.27;;
77581;SDS011;66726;52.388;9.986;2023-04-01T13:11:14;1.07;;;0.87;;
77581;SDS011;66726;52.388;9.986;2023-04-01T13:14:08;1.20;;;1.10;;
77581;SDS011;66726;52.388;9.986;2023-04-01T13:17:10;1.80;;;1.30;;
77581;SDS011;66726;52.388;9.986;2023-04-01T13:19:55;1.60;;;1.40;;
77581;SDS011;66726;52.388;9.986;2023-04-01T13:22:45;1.63;;;1.27;;
77581;SDS011;66726;52.388;9.986;2023-04-01T13:25:30;3.07;;;1.77;;
77581;SDS011;66726;52.388;9.986;2023-04-01T13:28:12;2.00;;;1.80;;
77581;SDS011;66726;52.388;9.986;2023-04-01T13:30:54;1.93;;;1.63;;
77581;SDS011;66726;52.388;9.986;2023-04-01T13:33:40;1.90;;;1.50;;
77581;SDS011;66726;52.388;9.986;2023-04-01T13:36:26;1.60;;;1.40;;
77581;SDS011;66726;52.388;9.986;2023-04-01T13:39:17;1.57;;;1.47;;
77581;SDS011;66726;52.388;9.986;2023-04-01T13:42:01;1.90;;;1.43;;
77581;SDS011;66726;52.388;9.986;2023-04-01T13:44:46;1.40;;;1.30;;
77581;SDS011;66726;52.388;9.986;2023-04-01T13:47:30;1.40;;;1.30;;
77581;SDS011;66726;52.388;9.986;2023-04-01T13:50:47;1.60;;;1.50;;
77581;SDS011;66726;52.388;9.986;2023-04-01T13:54:03;2.63;;;1.50;;
77581;SDS011;66726;52.388;9.986;2023-04-01T13:57:02;1.47;;;1.37;;
77581;SDS011;66726;52.388;9.986;2023-04-01T13:59:58;1.40;;;1.30;;
77581;SDS011;66726;52.388;9.986;2023-04-01T14:02:49;1.80;;;1.30;;
77581;SDS011;66726;52.388;9.986;2023-04-01T14:05:48;1.27;;;1.17;;
77581;SDS011;66726;52.388;9.986;2023-04-01T14:08:42;1.30;;;1.20;;
77581;SDS011;66726;52.388;9.986;2023-04-01T14:11:37;1.60;;;1.50;;
77581;SDS011;66726;52.388;9.986;2023-04-01T14:14:21;1.57;;;1.47;;
77581;SDS011;66726;52.388;9.986;2023-04-01T14:17:13;1.60;;;1.40;;
77581;SDS011;66726;52.388;9.986;2023-04-01T14:20:14;1.60;;;1.47;;
77581;SDS011;66726;52.388;9.986;2023-04-01T14:22:59;2.40;;;1.50;;
77581;SDS011;66726;52.388;9.986;2023-04-01T14:26:11;2.50;;;1.50;;
77581;SDS011;66726;52.388;9.986;2023-04-01T14:28:55;1.80;;;1.67;;
77581;SDS011;66726;52.388;9.986;2023-04-01T14:31:47;1.70;;;1.60;;
77581;SDS011;66726;52.388;9.986;2023-04-01T14:34:37;2.40;;;1.60;;
77581;SDS011;66726;52.388;9.986;2023-04-01T14:37:33;1.70;;;1.60;;
77581;SDS011;66726;52.388;9.986;2023-04-01T14:40:51;3.37;;;1.83;;
77581;SDS011;66726;52.388;9.986;2023-04-01T14:46:50;1.50;;;1.40;;
77581;SDS011;66726;52.388;9.986;2023-04-01T14:49:37;2.20;;;1.70;;
77581;SDS011;66726;52.388;9.986;2023-04-01T14:52:14;1.67;;;1.47;;
77581;SDS011;66726;52.388;9.986;2023-04-01T14:54:57;1.40;;;1.30;;
77581;SDS011;66726;52.388;9.986;2023-04-01T14:57:38;1.53;;;1.43;;
77581;SDS011;66726;52.388;9.986;2023-04-01T15:00:25;1.87;;;1.30;;
77581;SDS011;66726;52.388;9.986;2023-04-01T15:03:17;1.70;;;1.50;;
77581;SDS011;66726;52.388;9.986;2023-04-01T15:05:55;1.50;;;1.40;;
77581;SDS011;66726;52.388;9.986;2023-04-01T15:08:52;1.77;;;1.63;;
77581;SDS011;66726;52.388;9.986;2023-04-01T15:11:40;1.70;;;1.60;;
77581;SDS011;66726;52.388;9.986;2023-04-01T15:14:32;1.63;;;1.50;;
77581;SDS011;66726;52.388;9.986;2023-04-01T15:17:29;1.43;;;1.33;;
77581;SDS011;66726;52.388;9.986;2023-04-01T15:20:22;1.87;;;1.30;;
77581;SDS011;66726;52.388;9.986;2023-04-01T15:26:16;1.87;;;1.67;;
77581;SDS011;66726;52.388;9.986;2023-04-01T15:29:06;2.00;;;1.67;;
77581;SDS011;66726;52.388;9.986;2023-04-01T15:32:02;2.00;;;1.90;;
77581;SDS011;66726;52.388;9.986;2023-04-01T15:34:45;1.60;;;1.50;;
77581;SDS011;66726;52.388;9.986;2023-04-01T15:37:33;1.93;;;1.73;;
77581;SDS011;66726;52.388;9.986;2023-04-01T15:40:20;1.93;;;1.70;;
77581;SDS011;66726;52.388;9.986;2023-04-01T15:43:06;1.30;;;1.20;;
77581;SDS011;66726;52.388;9.986;2023-04-01T15:45:54;3.53;;;1.87;;
77581;SDS011;66726;52.388;9.986;2023-04-01T15:48:42;1.93;;;1.47;;
77581;SDS011;66726;52.388;9.986;2023-04-01T15:51:36;1.70;;;1.60;;
77581;SDS011;66726;52.388;9.986;2023-04-01T15:54:47;1.80;;;1.50;;
77581;SDS011;66726;52.388;9.986;2023-04-01T15:57:40;1.80;;;1.70;;
77581;SDS011;66726;52.388;9.986;2023-04-01T16:00:25;1.60;;;1.50;;
77581;SDS011;66726;52.388;9.986;2023-04-01T16:03:16;1.67;;;1.57;;
77581;SDS011;66726;52.388;9.986;2023-04-01T16:06:10;1.40;;;1.30;;
77581;SDS011;66726;52.388;9.986;2023-04-01T16:09:33;1.80;;;1.50;;
77581;SDS011;66726;52.388;9.986;2023-04-01T16:12:31;1.70;;;1.50;;
77581;SDS011;66726;52.388;9.986;2023-04-01T16:15:22;1.50;;;1.40;;
77581;SDS011;66726;52.388;9.986;2023-04-01T16:18:07;1.53;;;1.40;;
77581;SDS011;66726;52.388;9.986;2023-04-01T16:21:00;1.60;;;1.50;;
77581;SDS011;66726;52.388;9.986;2023-04-01T16:23:39;1.47;;;1.30;;
77581;SDS011;66726;52.388;9.986;2023-04-01T16:26:20;3.13;;;1.43;;
77581;SDS011;66726;52.388;9.986;2023-04-01T16:29:04;2.00;;;1.80;;
77581;SDS011;66726;52.388;9.986;2023-04-01T16:31:48;2.10;;;1.60;;
77581;SDS011;66726;52.388;9.986;2023-04-01T16:34:44;1.63;;;1.27;;
77581;SDS011;66726;52.388;9.986;2023-04-01T16:37:32;1.33;;;1.23;;
77581;SDS011;66726;52.388;9.986;2023-04-01T16:40:12;1.93;;;1.40;;
77581;SDS011;66726;52.388;9.986;2023-04-01T16:42:53;1.97;;;1.30;;
77581;SDS011;66726;52.388;9.986;2023-04-01T16:45:38;1.50;;;1.40;;
77581;SDS011;66726;52.388;9.986;2023-04-01T16:48:21;2.53;;;1.40;;
77581;SDS011;66726;52.388;9.986;2023-04-01T16:51:04;2.23;;;1.70;;
77581;SDS011;66726;52.388;9.986;2023-04-01T16:53:43;1.73;;;1.63;;
77581;SDS011;66726;52.388;9.986;2023-04-01T16:56:20;1.90;;;1.60;;
77581;SDS011;66726;52.388;9.986;2023-04-01T16:58:58;1.80;;;1.70;;
77581;SDS011;66726;52.388;9.986;2023-04-01T17:01:43;3.13;;;1.60;;
77581;SDS011;66726;52.388;9.986;2023-04-01T17:04:24;2.13;;;1.70;;
77581;SDS011;66726;52.388;9.986;2023-04-01T17:07:11;3.37;;;1.73;;
77581;SDS011;66726;52.388;9.986;2023-04-01T17:10:00;2.53;;;1.87;;
77581;SDS011;66726;52.388;9.986;2023-04-01T17:12:51;2.23;;;1.60;;
77581;SDS011;66726;52.388;9.986;2023-04-01T17:15:41;2.17;;;2.00;;
77581;SDS011;66726;52.388;9.986;2023-04-01T17:18:23;2.00;;;1.90;;
77581;SDS011;66726;52.388;9.986;2023-04-01T17:21:10;2.23;;;1.50;;
77581;SDS011;66726;52.388;9.986;2023-04-01T17:23:53;2.40;;;1.70;;
77581;SDS011;66726;52.388;9.986;2023-04-01T17:26:39;2.10;;;1.73;;
77581;SDS011;66726;52.388;9.986;2023-04-01T17:29:22;2.10;;;1.77;;
77581;SDS011;66726;52.388;9.986;2023-04-01T17:32:07;1.90;;;1.77;;
77581;SDS011;66726;52.388;9.986;2023-04-01T17:34:56;2.10;;;1.90;;
77581;SDS011;66726;52.388;9.986;2023-04-01T17:37:41;2.43;;;1.97;;
77581;SDS011;66726;52.388;9.986;2023-04-01T17:40:35;2.07;;;1.87;;
77581;SDS011;66726;52.388;9.986;2023-04-01T17:43:21;2.53;;;1.80;;
77581;SDS011;66726;52.388;9.986;2023-04-01T17:46:10;1.90;;;1.50;;
77581;SDS011;66726;52.388;9.986;2023-04-01T17:49:05;1.90;;;1.80;;
77581;SDS011;66726;52.388;9.986;2023-04-01T17:51:55;1.80;;;1.53;;